createdAt,value
2022-08-11T00:00:22.050Z,4.11
2022-08-11T00:02:23.956Z,4.1
2022-08-11T00:04:25.372Z,4.11
2022-08-11T00:06:26.563Z,4.1
2022-08-11T00:08:27.822Z,4.11
2022-08-11T00:12:30.918Z,4.1
2022-08-11T00:14:36.840Z,4.1
2022-08-11T00:16:34.234Z,4.1
2022-08-11T00:18:36.053Z,4.1
2022-08-11T00:20:37.927Z,4.1
2022-08-11T00:22:39.104Z,4.1
2022-08-11T00:24:49.400Z,4.1
2022-08-11T00:26:41.321Z,4.1
2022-08-11T00:28:43.237Z,4.1
2022-08-11T00:30:44.446Z,4.1
2022-08-11T00:32:46.127Z,4.1
2022-08-11T00:34:47.465Z,4.1
2022-08-11T00:36:48.483Z,4.1
2022-08-11T00:40:50.415Z,4.1
2022-08-11T00:42:51.599Z,4.1
2022-08-11T00:44:52.992Z,4.1
2022-08-11T00:46:54.157Z,4.1
2022-08-11T00:48:55.286Z,4.1
2022-08-11T00:50:56.555Z,4.1
2022-08-11T00:52:57.649Z,4.1
2022-08-11T00:54:58.869Z,4.1
2022-08-11T00:57:00.395Z,4.1
2022-08-11T00:59:01.652Z,4.1
2022-08-11T01:01:02.962Z,4.1
2022-08-11T01:03:04.042Z,4.1
2022-08-11T01:07:07.222Z,4.1
2022-08-11T01:11:10.828Z,4.1
2022-08-11T01:13:11.880Z,4.1
2022-08-11T01:15:13.606Z,4.1
2022-08-11T01:17:15.238Z,4.1
2022-08-11T01:21:18.477Z,4.1
2022-08-11T01:23:20.352Z,4.1
2022-08-11T01:25:22.138Z,4.09
2022-08-11T01:27:23.911Z,4.1
2022-08-11T01:31:26.028Z,4.09
2022-08-11T01:33:27.291Z,4.1
2022-08-11T01:37:30.539Z,4.09
2022-08-11T01:39:32.449Z,4.09
2022-08-11T01:41:33.804Z,4.09
2022-08-11T01:43:35.047Z,4.09
2022-08-11T01:45:36.168Z,4.09
2022-08-11T01:47:37.930Z,4.09
2022-08-11T01:50:05.997Z,4.09
2022-08-11T01:53:41.896Z,4.09
2022-08-11T01:55:43.572Z,4.09
2022-08-11T01:57:44.595Z,4.09
2022-08-11T01:59:45.691Z,4.09
2022-08-11T02:01:46.662Z,4.09
2022-08-11T02:03:47.768Z,4.09
2022-08-11T02:05:48.825Z,4.09
2022-08-11T02:07:50.321Z,4.09
2022-08-11T02:09:51.839Z,4.09
2022-08-11T02:11:53.149Z,4.08
2022-08-11T02:13:54.577Z,4.08
2022-08-11T02:15:56.080Z,4.08
2022-08-11T02:19:59.045Z,4.08
2022-08-11T02:22:00.660Z,4.08
2022-08-11T02:24:06.427Z,4.08
2022-08-11T02:26:04.097Z,4.08
2022-08-11T02:28:05.075Z,4.08
2022-08-11T02:30:06.807Z,4.08
2022-08-11T02:32:15.735Z,4.09
2022-08-11T02:36:10.608Z,4.08
2022-08-11T02:38:12.001Z,4.08
2022-08-11T02:42:31.714Z,4.08
2022-08-11T02:44:15.444Z,4.08
2022-08-11T02:46:18.322Z,4.08
2022-08-11T02:48:19.036Z,4.08
2022-08-11T02:50:20.655Z,4.08
2022-08-11T02:52:22.348Z,4.08
2022-08-11T02:54:24.016Z,4.08
2022-08-11T02:56:25.189Z,4.08
2022-08-11T02:58:27.125Z,4.08
2022-08-11T03:00:28.457Z,4.08
2022-08-11T03:02:29.996Z,4.08
2022-08-11T03:04:36.668Z,4.08
2022-08-11T03:06:33.009Z,4.08
2022-08-11T03:08:34.415Z,4.08
2022-08-11T03:10:36.357Z,4.08
2022-08-11T03:12:37.803Z,4.08
2022-08-11T03:14:39.513Z,4.08
2022-08-11T03:16:40.480Z,4.08
2022-08-11T03:18:41.728Z,4.08
2022-08-11T03:20:43.690Z,4.08
2022-08-11T03:22:44.704Z,4.08
2022-08-11T03:24:46.361Z,4.08
2022-08-11T03:26:48.184Z,4.08
2022-08-11T03:28:49.523Z,4.08
2022-08-11T03:30:51.064Z,4.08
2022-08-11T03:34:53.707Z,4.08
2022-08-11T03:37:15.911Z,4.08
2022-08-11T03:38:56.591Z,4.07
2022-08-11T03:40:58.362Z,4.07
2022-08-11T03:42:59.637Z,4.07
2022-08-11T03:45:01.111Z,4.08
2022-08-11T03:47:02.516Z,4.08
2022-08-11T03:49:03.999Z,4.08
2022-08-11T03:51:05.449Z,4.08
2022-08-11T03:53:06.913Z,4.08
2022-08-11T03:55:08.085Z,4.07
2022-08-11T03:57:09.390Z,4.07
2022-08-11T03:59:10.440Z,4.07
2022-08-11T04:01:11.757Z,4.07
2022-08-11T04:03:12.755Z,4.08
2022-08-11T04:03:56.597Z,4.07
2022-08-11T04:05:57.583Z,4.07
2022-08-11T04:07:59.095Z,4.07
2022-08-11T04:12:02.509Z,4.07
2022-08-11T04:14:04.227Z,4.07
2022-08-11T04:16:10.838Z,4.07
2022-08-11T04:18:07.187Z,4.07
2022-08-11T04:22:10.725Z,4.07
2022-08-11T04:24:13.364Z,4.07
2022-08-11T04:28:18.855Z,4.07
2022-08-11T04:30:16.869Z,4.07
2022-08-11T04:32:18.137Z,4.06
2022-08-11T04:34:19.521Z,4.06
2022-08-11T04:38:22.466Z,4.07
2022-08-11T04:40:23.524Z,4.06
2022-08-11T04:44:26.845Z,4.06
2022-08-11T04:46:28.770Z,4.06
2022-08-11T04:48:30.192Z,4.06
2022-08-11T04:50:31.488Z,4.06
2022-08-11T04:52:35.838Z,4.06
2022-08-11T04:54:34.097Z,4.06
2022-08-11T04:56:36.005Z,4.06
2022-08-11T04:58:37.101Z,4.06
2022-08-11T05:00:38.285Z,4.06
2022-08-11T05:02:39.372Z,4.06
2022-08-11T05:06:41.424Z,4.06
2022-08-11T05:10:44.631Z,4.07
2022-08-11T05:12:45.870Z,4.07
2022-08-11T05:14:46.822Z,4.07
2022-08-11T05:16:48.491Z,4.08
2022-08-11T05:20:51.255Z,4.07
2022-08-11T05:22:52.496Z,4.07
2022-08-11T05:24:54.272Z,4.07
2022-08-11T05:26:55.706Z,4.07
2022-08-11T05:28:56.976Z,4.07
2022-08-11T05:30:58.347Z,4.08
2022-08-11T05:35:02.018Z,4.08
2022-08-11T05:39:04.834Z,4.08
2022-08-11T05:41:05.784Z,4.09
2022-08-11T05:43:07.534Z,4.09
2022-08-11T05:45:15.480Z,4.09
2022-08-11T05:47:09.960Z,4.1
2022-08-11T05:49:11.806Z,4.1
2022-08-11T05:53:14.656Z,4.11
2022-08-11T05:55:15.926Z,4.12
2022-08-11T05:57:38.643Z,4.12
2022-08-11T05:59:18.088Z,4.13
2022-08-11T06:01:19.775Z,4.13
2022-08-11T06:03:21.243Z,4.13
2022-08-11T06:05:22.715Z,4.14
2022-08-11T06:09:24.545Z,4.14
2022-08-11T06:11:43.395Z,4.15
2022-08-11T06:13:26.778Z,4.15
2022-08-11T06:15:27.655Z,4.15
2022-08-11T06:17:38.769Z,4.16
2022-08-11T06:19:39.946Z,4.16
2022-08-11T06:21:32.895Z,4.16
2022-08-11T06:23:36.071Z,4.16
2022-08-11T06:25:35.303Z,4.16
2022-08-11T06:27:37.107Z,4.16
2022-08-11T06:29:46.912Z,4.17
2022-08-11T06:31:39.361Z,4.17
2022-08-11T06:35:41.749Z,4.17
2022-08-11T06:37:43.292Z,4.17
2022-08-11T06:39:45.158Z,4.17
2022-08-11T06:41:46.730Z,4.18
2022-08-11T06:43:55.688Z,4.18
2022-08-11T06:45:50.245Z,4.18
2022-08-11T06:51:53.352Z,4.19
2022-08-11T06:53:56.441Z,4.19
2022-08-11T06:55:58.731Z,4.19
2022-08-11T06:57:57.118Z,4.19
2022-08-11T07:02:00.486Z,4.19
2022-08-11T07:04:01.853Z,4.2
2022-08-11T07:08:33.327Z,4.19
2022-08-11T07:10:06.456Z,4.19
2022-08-11T07:12:08.177Z,4.19
2022-08-11T07:14:10.290Z,4.19
2022-08-11T07:18:13.214Z,4.2
2022-08-11T07:20:14.536Z,4.2
2022-08-11T07:22:15.982Z,4.2
2022-08-11T07:24:16.773Z,4.2
2022-08-11T07:28:19.426Z,4.2
2022-08-11T07:30:21.193Z,4.2
2022-08-11T07:32:22.216Z,4.2
2022-08-11T07:34:23.898Z,4.2
2022-08-11T07:36:26.254Z,4.2
2022-08-11T07:38:27.066Z,4.2
2022-08-11T07:40:28.148Z,4.2
2022-08-11T07:42:29.682Z,4.2
2022-08-11T07:44:34.582Z,4.2
2022-08-11T07:46:31.690Z,4.2
2022-08-11T07:48:32.952Z,4.2
2022-08-11T07:52:34.838Z,4.19
2022-08-11T07:56:54.618Z,4.19
2022-08-11T07:58:44.047Z,4.19
2022-08-11T08:00:38.947Z,4.19
2022-08-11T08:02:40.382Z,4.19
2022-08-11T08:06:43.842Z,4.19
2022-08-11T08:08:45.408Z,4.19
2022-08-11T08:10:46.528Z,4.19
2022-08-11T08:12:47.734Z,4.19
2022-08-11T08:16:50.496Z,4.19
2022-08-11T08:18:51.401Z,4.19
2022-08-11T08:20:52.596Z,4.19
2022-08-11T08:22:54.053Z,4.19
2022-08-11T08:24:55.294Z,4.19
2022-08-11T08:26:56.581Z,4.19
2022-08-11T08:28:57.426Z,4.19
2022-08-11T08:33:00.187Z,4.18
2022-08-11T08:35:01.925Z,4.18
2022-08-11T08:37:02.938Z,4.18
2022-08-11T08:39:04.669Z,4.18
2022-08-11T08:41:05.547Z,4.18
2022-08-11T08:43:06.862Z,4.18
2022-08-11T08:45:07.766Z,4.18
2022-08-11T08:47:09.520Z,4.18
2022-08-11T08:49:11.234Z,4.18
2022-08-11T08:51:12.609Z,4.18
2022-08-11T08:53:13.840Z,4.18
2022-08-11T08:55:14.645Z,4.18
2022-08-11T08:57:16.775Z,4.18
2022-08-11T08:59:18.168Z,4.18
2022-08-11T09:01:19.268Z,4.18
2022-08-11T09:03:40.866Z,4.18
2022-08-11T09:05:21.785Z,4.17
2022-08-11T09:07:22.808Z,4.18
2022-08-11T09:09:24.562Z,4.18
2022-08-11T09:11:26.315Z,4.18
2022-08-11T09:15:28.452Z,4.18
2022-08-11T09:17:29.332Z,4.17
2022-08-11T09:19:30.362Z,4.18
2022-08-11T09:21:46.527Z,4.18
2022-08-11T09:25:34.610Z,4.17
2022-08-11T09:27:36.202Z,4.17
2022-08-11T09:31:40.211Z,4.17
2022-08-11T09:33:39.852Z,4.17
2022-08-11T09:35:41.241Z,4.17
2022-08-11T09:37:55.149Z,4.17
2022-08-11T09:39:44.219Z,4.17
2022-08-11T09:41:55.983Z,4.17
2022-08-11T09:43:46.070Z,4.17
2022-08-11T09:47:48.750Z,4.17
2022-08-11T09:49:50.227Z,4.17
2022-08-11T09:51:59.730Z,4.17
2022-08-11T09:54:02.752Z,4.17
2022-08-11T09:57:55.496Z,4.17
2022-08-11T10:00:09.400Z,4.17
2022-08-11T10:01:58.466Z,4.17
2022-08-11T10:03:59.478Z,4.17
2022-08-11T10:06:03.390Z,4.17
2022-08-11T10:08:02.223Z,4.17
2022-08-11T10:12:04.248Z,4.17
2022-08-11T10:16:15.016Z,4.17
2022-08-11T10:18:09.238Z,4.17
2022-08-11T10:20:10.637Z,4.17
2022-08-11T10:22:11.833Z,4.17
2022-08-11T10:24:12.702Z,4.17
2022-08-11T10:26:13.545Z,4.17
2022-08-11T10:30:16.010Z,4.17
2022-08-11T10:32:17.244Z,4.16
2022-08-11T10:34:19.747Z,4.17
2022-08-11T10:38:21.309Z,4.17
2022-08-11T10:40:22.524Z,4.16
2022-08-11T10:42:35.328Z,4.17
2022-08-11T10:46:30.077Z,4.16
2022-08-11T10:48:27.899Z,4.16
2022-08-11T10:49:11.573Z,4.16
2022-08-11T10:51:12.584Z,4.16
2022-08-11T10:53:13.355Z,4.16
2022-08-11T10:57:16.086Z,4.16
2022-08-11T10:59:17.214Z,4.16
2022-08-11T11:01:18.225Z,4.16
2022-08-11T11:03:22.541Z,4.16
2022-08-11T11:07:21.954Z,4.16
2022-08-11T11:09:22.953Z,4.16
2022-08-11T11:11:24.498Z,4.16
2022-08-11T11:13:25.708Z,4.16
2022-08-11T11:15:26.595Z,4.16
2022-08-11T11:17:27.549Z,4.16
2022-08-11T11:21:29.873Z,4.16
2022-08-11T11:23:31.262Z,4.16
2022-08-11T11:25:32.509Z,4.16
2022-08-11T11:27:34.051Z,4.16
2022-08-11T11:29:35.002Z,4.16
2022-08-11T11:33:57.541Z,4.16
2022-08-11T11:35:38.303Z,4.16
2022-08-11T11:39:40.923Z,4.16
2022-08-11T11:41:42.442Z,4.16
2022-08-11T11:43:43.753Z,4.16
2022-08-11T11:45:44.780Z,4.16
2022-08-11T11:49:46.733Z,4.16
2022-08-11T11:51:49.853Z,4.16
2022-08-11T11:53:49.537Z,4.16
2022-08-11T11:55:50.830Z,4.16
2022-08-11T11:57:58.863Z,4.15
2022-08-11T11:59:53.635Z,4.15
2022-08-11T12:01:54.958Z,4.16
2022-08-11T12:05:57.374Z,4.16
2022-08-11T12:08:04.915Z,4.15
2022-08-11T12:09:59.368Z,4.15
2022-08-11T12:12:00.526Z,4.15
2022-08-11T12:14:02.184Z,4.15
2022-08-11T12:16:03.734Z,4.15
2022-08-11T12:18:04.645Z,4.15
2022-08-11T12:22:06.715Z,4.15
2022-08-11T12:24:07.605Z,4.15
2022-08-11T12:28:10.234Z,4.15
2022-08-11T12:32:12.395Z,4.15
2022-08-11T12:34:14.052Z,4.15
2022-08-11T12:36:15.562Z,4.15
2022-08-11T12:38:16.805Z,4.15
2022-08-11T12:40:37.885Z,4.15
2022-08-11T12:42:19.300Z,4.15
2022-08-11T12:44:24.792Z,4.14
2022-08-11T12:49:00.227Z,4.15
2022-08-11T12:50:24.228Z,4.14
2022-08-11T12:52:25.390Z,4.15
2022-08-11T12:54:26.188Z,4.14
2022-08-11T12:56:27.429Z,4.15
2022-08-11T12:58:28.367Z,4.15
2022-08-11T13:00:29.552Z,4.14
2022-08-11T13:02:31.192Z,4.14
2022-08-11T13:04:32.547Z,4.14
2022-08-11T13:08:34.451Z,4.14
2022-08-11T13:12:37.154Z,4.14
2022-08-11T13:14:38.041Z,4.14
2022-08-11T13:16:39.006Z,4.14
2022-08-11T13:18:40.280Z,4.14
2022-08-11T13:20:41.889Z,4.14
2022-08-11T13:22:42.791Z,4.14
2022-08-11T13:24:44.138Z,4.14
2022-08-11T13:26:48.257Z,4.14
2022-08-11T13:28:47.260Z,4.17
2022-08-11T13:30:48.178Z,4.17
2022-08-11T13:32:49.139Z,4.17
2022-08-11T13:34:50.188Z,4.17
2022-08-11T13:36:51.402Z,4.17
2022-08-11T13:38:52.685Z,4.18
2022-08-11T13:40:55.910Z,4.18
2022-08-11T13:42:55.219Z,4.19
2022-08-11T13:44:56.407Z,4.18
2022-08-11T13:46:57.968Z,4.19
2022-08-11T13:49:00.606Z,4.19
2022-08-11T13:51:00.340Z,4.19
2022-08-11T13:53:02.113Z,4.19
2022-08-11T13:55:03.360Z,4.19
2022-08-11T13:59:05.962Z,4.19
2022-08-11T14:03:08.317Z,4.19
2022-08-11T14:05:09.543Z,4.19
2022-08-11T14:07:10.719Z,4.19
2022-08-11T14:09:12.131Z,4.2
2022-08-11T14:13:14.883Z,4.19
2022-08-11T14:15:16.295Z,4.19
2022-08-11T14:19:18.494Z,4.2
2022-08-11T14:21:19.705Z,4.2
2022-08-11T14:23:20.846Z,4.2
2022-08-11T14:25:22.175Z,4.19
2022-08-11T14:29:25.070Z,4.2
2022-08-11T14:31:25.809Z,4.2
2022-08-11T14:33:27.388Z,4.2
2022-08-11T14:35:29.097Z,4.2
2022-08-11T14:37:30.160Z,4.2
2022-08-11T14:39:31.467Z,4.2
2022-08-11T14:41:32.261Z,4.19
2022-08-11T14:44:10.362Z,4.19
2022-08-11T14:45:54.587Z,4.19
2022-08-11T14:49:37.533Z,4.19
2022-08-11T14:51:40.881Z,4.19
2022-08-11T14:53:40.540Z,4.19
2022-08-11T14:55:42.015Z,4.19
2022-08-11T14:57:54.508Z,4.19
2022-08-11T15:01:46.622Z,4.19
2022-08-11T15:04:02.713Z,4.19
2022-08-11T15:05:56.881Z,4.19
2022-08-11T15:07:49.877Z,4.19
2022-08-11T15:11:52.064Z,4.19
2022-08-11T15:13:53.467Z,4.19
2022-08-11T15:15:54.312Z,4.18
2022-08-11T15:17:56.009Z,4.19
2022-08-11T15:19:57.104Z,4.18
2022-08-11T15:21:58.151Z,4.19
2022-08-11T15:23:59.220Z,4.19
2022-08-11T15:28:01.984Z,4.19
2022-08-11T15:30:03.358Z,4.18
2022-08-11T15:34:04.942Z,4.18
2022-08-11T15:36:06.458Z,4.18
2022-08-11T15:38:08.127Z,4.18
2022-08-11T15:40:31.855Z,4.18
2022-08-11T15:44:12.793Z,4.18
2022-08-11T15:46:13.780Z,4.18
2022-08-11T15:48:15.829Z,4.18
2022-08-11T15:52:17.907Z,4.18
2022-08-11T15:54:19.518Z,4.18
2022-08-11T15:56:20.708Z,4.18
2022-08-11T15:58:21.534Z,4.18
2022-08-11T16:00:24.475Z,4.18
2022-08-11T16:02:23.228Z,4.18
2022-08-11T16:04:24.320Z,4.18
2022-08-11T16:06:25.272Z,4.18
2022-08-11T16:10:27.595Z,4.17
2022-08-11T16:12:29.274Z,4.17
2022-08-11T16:16:31.395Z,4.17
2022-08-11T16:18:33.053Z,4.17
2022-08-11T16:20:34.624Z,4.17
2022-08-11T16:22:35.992Z,4.17
2022-08-11T16:27:06.504Z,4.17
2022-08-11T16:28:39.698Z,4.17
2022-08-11T16:30:40.903Z,4.17
2022-08-11T16:32:42.352Z,4.17
2022-08-11T16:34:43.743Z,4.17
2022-08-11T16:36:45.178Z,4.17
2022-08-11T16:38:46.847Z,4.17
2022-08-11T16:42:59.790Z,4.17
2022-08-11T16:44:49.896Z,4.17
2022-08-11T16:46:50.882Z,4.17
2022-08-11T16:48:52.447Z,4.17
2022-08-11T16:52:54.887Z,4.17
2022-08-11T16:54:56.497Z,4.17
2022-08-11T16:56:57.809Z,4.17
2022-08-11T16:58:59.097Z,4.17
2022-08-11T17:01:00.919Z,4.17
2022-08-11T17:03:02.037Z,4.17
2022-08-11T17:07:23.561Z,4.17
2022-08-11T17:09:05.560Z,4.17
2022-08-11T17:11:06.905Z,4.17
2022-08-11T17:13:07.729Z,4.17
2022-08-11T17:15:09.157Z,4.17
2022-08-11T17:17:10.263Z,4.17
2022-08-11T17:19:11.569Z,4.17
2022-08-11T17:21:13.329Z,4.16
2022-08-11T17:25:16.006Z,4.16
2022-08-11T17:27:17.135Z,4.16
2022-08-11T17:29:18.557Z,4.16
2022-08-11T17:33:21.189Z,4.16
2022-08-11T17:34:04.873Z,4.16
2022-08-11T17:36:05.709Z,4.16
2022-08-11T17:38:06.993Z,4.16
2022-08-11T17:40:08.016Z,4.16
2022-08-11T17:42:09.651Z,4.16
2022-08-11T17:44:10.455Z,4.16
2022-08-11T17:46:11.825Z,4.16
2022-08-11T17:48:12.852Z,4.16
2022-08-11T17:50:16.517Z,4.16
2022-08-11T17:52:14.983Z,4.16
2022-08-11T17:56:17.110Z,4.16
2022-08-11T17:58:18.806Z,4.16
2022-08-11T18:02:21.114Z,4.16
2022-08-11T18:04:22.567Z,4.16
2022-08-11T18:08:25.031Z,4.16
2022-08-11T18:10:26.775Z,4.16
2022-08-11T18:12:28.144Z,4.16
2022-08-11T18:14:29.451Z,4.16
2022-08-11T18:18:32.744Z,4.16
2022-08-11T18:20:33.906Z,4.16
2022-08-11T18:22:34.964Z,4.16
2022-08-11T18:24:35.838Z,4.16
2022-08-11T18:26:37.088Z,4.16
2022-08-11T18:28:37.953Z,4.16
2022-08-11T18:30:39.740Z,4.15
2022-08-11T18:32:49.483Z,4.16
2022-08-11T18:34:41.695Z,4.16
2022-08-11T18:36:43.497Z,4.15
2022-08-11T18:38:44.451Z,4.16
2022-08-11T18:40:45.955Z,4.15
2022-08-11T18:44:48.283Z,4.16
2022-08-11T18:46:49.828Z,4.16
2022-08-11T18:48:51.294Z,4.15
2022-08-11T18:51:04.478Z,4.15
2022-08-11T18:52:53.863Z,4.15
2022-08-11T18:54:55.143Z,4.15
2022-08-11T18:56:56.181Z,4.15
2022-08-11T19:00:59.540Z,4.15
2022-08-11T19:03:00.655Z,4.15
2022-08-11T19:05:01.995Z,4.15
2022-08-11T19:07:03.344Z,4.15
2022-08-11T19:09:04.932Z,4.15
2022-08-11T19:11:06.315Z,4.15
2022-08-11T19:13:07.783Z,4.15
2022-08-11T19:17:10.071Z,4.15
2022-08-11T19:19:11.509Z,4.15
2022-08-11T19:21:12.827Z,4.15
2022-08-11T19:23:13.842Z,4.15
2022-08-11T19:27:16.486Z,4.15
2022-08-11T19:30:02.437Z,4.15
2022-08-11T19:31:19.656Z,4.14
2022-08-11T19:33:22.892Z,4.15
2022-08-11T19:37:24.549Z,4.15
2022-08-11T19:39:25.411Z,4.15
2022-08-11T19:41:52.425Z,4.14
2022-08-11T19:43:28.712Z,4.15
2022-08-11T19:45:29.622Z,4.14
2022-08-11T19:47:30.989Z,4.14
2022-08-11T19:49:32.375Z,4.14
2022-08-11T19:51:33.419Z,4.14
2022-08-11T19:53:34.655Z,4.14
2022-08-11T19:55:36.440Z,4.14
2022-08-11T19:59:39.375Z,4.14
2022-08-11T20:02:01.155Z,4.14
2022-08-11T20:03:42.300Z,4.14
2022-08-11T20:05:55.437Z,4.14
2022-08-11T20:07:45.753Z,4.14
2022-08-11T20:10:01.025Z,4.14
2022-08-11T20:15:51.419Z,4.14
2022-08-11T20:17:52.437Z,4.14
2022-08-11T20:19:54.898Z,4.14
2022-08-11T20:21:55.574Z,4.14
2022-08-11T20:26:03.857Z,4.14
2022-08-11T20:27:59.993Z,4.14
2022-08-11T20:30:00.981Z,4.14
2022-08-11T20:32:04.287Z,4.14
2022-08-11T20:34:04.050Z,4.14
2022-08-11T20:36:05.632Z,4.14
2022-08-11T20:40:07.947Z,4.14
2022-08-11T20:42:08.940Z,4.14
2022-08-11T20:44:10.183Z,4.14
2022-08-11T20:48:14.591Z,4.14
2022-08-11T20:52:15.094Z,4.13
2022-08-11T20:54:16.495Z,4.13
2022-08-11T20:58:21.939Z,4.14
2022-08-11T21:00:39.047Z,4.14
2022-08-11T21:02:22.301Z,4.13
2022-08-11T21:04:23.160Z,4.13
2022-08-11T21:06:26.194Z,4.13
2022-08-11T21:08:25.401Z,4.13
2022-08-11T21:10:26.905Z,4.13
2022-08-11T21:12:28.874Z,4.13
2022-08-11T21:14:29.642Z,4.13
2022-08-11T21:16:31.427Z,4.13
2022-08-11T21:20:34.666Z,4.13
2022-08-11T21:24:36.917Z,4.13
2022-08-11T21:26:38.533Z,4.13
2022-08-11T21:28:40.080Z,4.13
2022-08-11T21:30:41.645Z,4.13
2022-08-11T21:32:42.613Z,4.13
2022-08-11T21:34:44.237Z,4.13
2022-08-11T21:36:45.857Z,4.13
2022-08-11T21:40:48.395Z,4.13
2022-08-11T21:42:49.918Z,4.13
2022-08-11T21:44:50.910Z,4.12
2022-08-11T21:46:51.940Z,4.12
2022-08-11T21:50:55.152Z,4.12
2022-08-11T21:52:56.996Z,4.12
2022-08-11T21:54:58.770Z,4.12
2022-08-11T21:57:00.291Z,4.12
2022-08-11T21:59:06.841Z,4.13
2022-08-11T22:01:02.615Z,4.12
2022-08-11T22:03:03.811Z,4.12
2022-08-11T22:05:05.398Z,4.12
2022-08-11T22:07:07.011Z,4.12
2022-08-11T22:09:08.643Z,4.12
2022-08-11T22:13:12.387Z,4.12
2022-08-11T22:15:13.659Z,4.12
2022-08-11T22:17:14.670Z,4.12
2022-08-11T22:19:15.575Z,4.12
2022-08-11T22:23:18.830Z,4.12
2022-08-11T22:25:19.869Z,4.12
2022-08-11T22:27:21.069Z,4.12
2022-08-11T22:29:37.976Z,4.12
2022-08-11T22:33:28.440Z,4.12
2022-08-11T22:35:28.500Z,4.12
2022-08-11T22:37:28.266Z,4.12
2022-08-11T22:39:29.725Z,4.12
2022-08-11T22:41:31.707Z,4.12
2022-08-11T22:43:33.197Z,4.12
2022-08-11T22:45:34.865Z,4.12
2022-08-11T22:47:38.518Z,4.12
2022-08-11T22:49:42.364Z,4.12
2022-08-11T22:53:55.114Z,4.12
2022-08-11T22:55:42.057Z,4.12
2022-08-11T22:57:55.233Z,4.12
2022-08-11T22:59:44.986Z,4.12
2022-08-11T23:01:54.841Z,4.12
2022-08-11T23:05:49.159Z,4.12
2022-08-11T23:07:51.898Z,4.11
2022-08-11T23:11:57.737Z,4.12
2022-08-11T23:13:54.095Z,4.11
2022-08-11T23:15:55.409Z,4.11
2022-08-11T23:17:56.558Z,4.11
2022-08-11T23:21:59.261Z,4.11
2022-08-11T23:24:00.822Z,4.11
2022-08-11T23:26:02.354Z,4.11
2022-08-11T23:28:03.441Z,4.11
2022-08-11T23:32:06.290Z,4.11
2022-08-11T23:34:07.253Z,4.11
2022-08-11T23:38:09.912Z,4.11
2022-08-11T23:40:10.845Z,4.11
2022-08-11T23:42:11.987Z,4.11
2022-08-11T23:44:13.393Z,4.11
2022-08-11T23:48:16.119Z,4.11
2022-08-11T23:50:17.567Z,4.11
2022-08-11T23:52:19.292Z,4.11
2022-08-11T23:54:20.903Z,4.11
2022-08-11T23:56:22.081Z,4.11
2022-08-11T23:58:23.162Z,4.11
